createdAt,value
2022-11-28T00:01:25.201Z,107.80
2022-11-28T00:03:51.850Z,109.70
2022-11-28T00:06:18.972Z,105.40
2022-11-28T00:08:46.347Z,106.70
2022-11-28T00:11:15.786Z,99.30
2022-11-28T00:13:43.387Z,94.60
2022-11-28T00:16:16.004Z,89.00
2022-11-28T00:18:42.539Z,89.40
2022-11-28T00:21:13.759Z,90.60
2022-11-28T00:23:41.924Z,96.10
2022-11-28T00:26:15.422Z,106.40
2022-11-28T00:28:42.520Z,99.90
2022-11-28T00:31:26.898Z,97.70
2022-11-28T00:33:54.500Z,99.90
2022-11-28T00:36:21.997Z,95.30
2022-11-28T00:38:49.397Z,97.50
2022-11-28T00:41:20.956Z,101.60
2022-11-28T00:43:48.963Z,98.10
2022-11-28T00:46:17.316Z,95.80
2022-11-28T00:48:44.546Z,85.60
2022-11-28T00:51:16.492Z,86.40
2022-11-28T00:53:45.075Z,81.40
2022-11-28T00:56:15.354Z,91.70
2022-11-28T00:58:43.104Z,93.10
2022-11-28T01:01:27.712Z,94.70
2022-11-28T01:03:57.410Z,89.00
2022-11-28T01:06:33.639Z,81.40
2022-11-28T01:09:05.564Z,90.30
2022-11-28T01:11:32.300Z,79.10
2022-11-28T01:14:01.124Z,88.50
2022-11-28T01:16:29.489Z,81.90
2022-11-28T01:18:56.328Z,73.10
2022-11-28T01:21:23.648Z,65.00
2022-11-28T01:23:50.422Z,53.60
2022-11-28T01:26:21.690Z,60.10
2022-11-28T01:28:48.774Z,58.80
2022-11-28T01:31:19.556Z,55.80
2022-11-28T01:33:46.765Z,54.40
2022-11-28T01:36:15.241Z,50.20
2022-11-28T01:38:42.592Z,67.40
2022-11-28T01:41:10.163Z,56.80
2022-11-28T01:43:38.158Z,63.40
2022-11-28T01:46:06.669Z,59.40
2022-11-28T01:48:39.772Z,65.90
2022-11-28T01:51:09.786Z,66.20
2022-11-28T01:53:42.815Z,71.60
2022-11-28T01:56:17.329Z,75.60
2022-11-28T01:58:50.334Z,71.00
2022-11-28T02:01:18.626Z,70.50
2022-11-28T02:03:49.160Z,70.60
2022-11-28T02:06:20.590Z,69.50
2022-11-28T02:08:55.449Z,73.70
2022-11-28T02:12:11.572Z,68.50
2022-11-28T02:15:20.972Z,61.90
2022-11-28T02:18:22.656Z,56.10
2022-11-28T02:21:06.591Z,65.40
2022-11-28T02:24:32.996Z,61.60
2022-11-28T02:27:25.631Z,66.90
2022-11-28T02:30:54.683Z,68.00
2022-11-28T02:33:38.676Z,55.50
2022-11-28T02:36:31.717Z,60.70
2022-11-28T02:39:06.971Z,62.40
2022-11-28T02:42:01.583Z,62.00
2022-11-28T02:44:42.813Z,68.40
2022-11-28T02:47:23.467Z,67.90
2022-11-28T02:50:21.241Z,63.40
2022-11-28T02:53:03.532Z,63.40
2022-11-28T02:55:30.799Z,60.20
2022-11-28T02:57:57.201Z,61.40
2022-11-28T03:00:36.914Z,63.00
2022-11-28T03:03:28.695Z,64.00
2022-11-28T03:06:09.727Z,61.20
2022-11-28T03:09:10.541Z,57.80
2022-11-28T03:12:19.915Z,51.50
2022-11-28T03:15:01.791Z,45.60
2022-11-28T03:18:00.554Z,43.70
2022-11-28T03:20:44.927Z,36.70
2022-11-28T03:23:17.863Z,40.90
2022-11-28T03:25:57.845Z,42.60
2022-11-28T03:28:39.275Z,51.00
2022-11-28T03:31:20.208Z,51.70
2022-11-28T03:33:58.190Z,56.60
2022-11-28T03:36:40.498Z,50.40
2022-11-28T03:39:14.573Z,53.60
2022-11-28T03:41:51.971Z,48.30
2022-11-28T03:44:27.948Z,49.00
2022-11-28T03:46:57.735Z,59.10
2022-11-28T03:49:35.993Z,48.90
2022-11-28T03:52:11.419Z,48.40
2022-11-28T03:54:49.596Z,42.00
2022-11-28T03:57:35.134Z,47.90
2022-11-28T04:00:12.864Z,42.90
2022-11-28T04:03:07.822Z,47.50
2022-11-28T04:05:47.128Z,46.90
2022-11-28T04:08:28.355Z,50.40
2022-11-28T04:11:14.640Z,49.90
2022-11-28T04:14:03.413Z,58.70
2022-11-28T04:16:54.434Z,67.80
2022-11-28T04:19:39.900Z,48.30
2022-11-28T04:22:24.232Z,41.50
2022-11-28T04:25:00.324Z,40.90
2022-11-28T04:27:38.769Z,45.90
2022-11-28T04:30:08.050Z,41.90
2022-11-28T04:32:42.204Z,39.50
2022-11-28T04:35:22.834Z,42.90
2022-11-28T04:37:51.936Z,39.50
2022-11-28T04:40:20.113Z,46.50
2022-11-28T04:42:57.748Z,43.10
2022-11-28T04:45:34.817Z,39.20
2022-11-28T04:48:02.497Z,37.50
2022-11-28T04:51:02.196Z,37.90
2022-11-28T04:53:49.867Z,36.80
2022-11-28T04:56:32.073Z,40.20
2022-11-28T04:59:00.829Z,47.50
2022-11-28T05:01:31.344Z,42.70
2022-11-28T05:03:57.967Z,41.50
2022-11-28T05:06:28.399Z,43.10
2022-11-28T05:08:55.195Z,43.20
2022-11-28T05:11:21.853Z,45.00
2022-11-28T05:13:48.329Z,43.00
2022-11-28T05:16:16.562Z,34.30
2022-11-28T05:18:44.107Z,33.90
2022-11-28T05:21:11.331Z,27.90
2022-11-28T05:23:40.917Z,34.80
2022-11-28T05:26:13.510Z,34.20
2022-11-28T05:28:43.496Z,32.80
2022-11-28T05:31:10.045Z,35.10
2022-11-28T05:33:36.585Z,38.20
2022-11-28T05:36:12.890Z,39.10
2022-11-28T05:38:40.878Z,41.60
2022-11-28T05:41:07.341Z,36.10
2022-11-28T05:43:34.229Z,31.20
2022-11-28T05:46:00.850Z,34.40
2022-11-28T05:48:27.324Z,37.60
2022-11-28T05:50:53.943Z,37.00
2022-11-28T05:53:20.460Z,35.80
2022-11-28T05:55:47.638Z,36.50
2022-11-28T05:58:14.786Z,36.30
2022-11-28T06:00:41.229Z,32.80
2022-11-28T06:03:07.815Z,37.10
2022-11-28T06:05:42.817Z,40.90
2022-11-28T06:08:12.567Z,37.60
2022-11-28T06:10:39.436Z,37.40
2022-11-28T06:13:06.084Z,38.70
2022-11-28T06:15:37.565Z,35.30
2022-11-28T06:18:05.087Z,37.30
2022-11-28T06:20:31.625Z,33.60
2022-11-28T06:22:57.990Z,30.20
2022-11-28T06:25:24.511Z,35.00
2022-11-28T06:27:50.883Z,32.70
2022-11-28T06:30:17.543Z,36.10
2022-11-28T06:32:44.017Z,55.40
2022-11-28T06:35:10.475Z,53.90
2022-11-28T06:37:36.968Z,49.90
2022-11-28T06:40:04.596Z,43.40
2022-11-28T06:42:31.227Z,44.00
2022-11-28T06:44:57.620Z,43.70
2022-11-28T06:47:24.008Z,39.00
2022-11-28T06:49:50.464Z,36.20
2022-11-28T06:52:16.836Z,37.00
2022-11-28T06:54:44.479Z,33.40
2022-11-28T06:57:11.274Z,44.20
2022-11-28T06:59:37.641Z,39.30
2022-11-28T07:02:07.785Z,35.80
2022-11-28T07:04:34.748Z,40.10
2022-11-28T07:07:01.143Z,44.20
2022-11-28T07:09:27.774Z,37.10
2022-11-28T07:11:54.288Z,39.10
2022-11-28T07:14:20.929Z,39.90
2022-11-28T07:16:49.059Z,33.90
2022-11-28T07:19:16.402Z,37.30
2022-11-28T07:21:42.803Z,35.90
2022-11-28T07:24:09.334Z,35.20
2022-11-28T07:26:37.898Z,38.30
2022-11-28T07:29:06.849Z,45.90
2022-11-28T07:31:34.142Z,48.60
2022-11-28T07:34:03.399Z,51.70
2022-11-28T07:36:30.514Z,48.60
2022-11-28T07:39:02.472Z,47.60
2022-11-28T07:41:29.052Z,44.90
2022-11-28T07:43:59.024Z,41.50
2022-11-28T07:46:27.973Z,43.50
2022-11-28T07:48:55.000Z,39.70
2022-11-28T07:51:29.818Z,37.10
2022-11-28T07:53:56.732Z,36.50
2022-11-28T07:56:39.579Z,34.10
2022-11-28T07:59:11.228Z,35.20
2022-11-28T08:01:38.438Z,35.50
2022-11-28T08:04:08.771Z,36.60
2022-11-28T08:06:43.337Z,39.10
2022-11-28T08:09:12.270Z,40.60
2022-11-28T08:11:39.156Z,46.50
2022-11-28T08:14:05.846Z,44.60
2022-11-28T08:16:32.842Z,47.30
2022-11-28T08:19:03.241Z,45.10
2022-11-28T08:21:33.276Z,46.00
2022-11-28T08:24:02.471Z,41.60
2022-11-28T08:26:31.369Z,42.60
2022-11-28T08:28:59.492Z,33.40
2022-11-28T08:31:38.346Z,40.40
2022-11-28T08:34:09.319Z,38.30
2022-11-28T08:36:35.880Z,40.60
2022-11-28T08:41:51.459Z,66.00
2022-11-28T08:44:17.898Z,40.00
2022-11-28T08:46:44.317Z,33.80
2022-11-28T08:49:11.027Z,32.90
2022-11-28T08:51:37.513Z,39.50
2022-11-28T08:54:04.301Z,38.50
2022-11-28T08:56:30.767Z,36.70
2022-11-28T08:58:57.139Z,33.30
2022-11-28T09:01:26.635Z,37.60
2022-11-28T09:03:55.484Z,39.60
2022-11-28T09:06:23.954Z,39.40
2022-11-28T09:08:52.313Z,37.70
2022-11-28T09:11:21.484Z,36.70
2022-11-28T09:13:48.193Z,37.70
2022-11-28T09:16:15.680Z,40.00
2022-11-28T09:18:42.579Z,41.80
2022-11-28T09:21:13.015Z,43.40
2022-11-28T09:23:41.302Z,39.40
2022-11-28T09:26:20.703Z,40.70
2022-11-28T09:28:47.946Z,41.40
2022-11-28T09:31:17.288Z,43.10
2022-11-28T09:33:46.038Z,35.70
2022-11-28T09:36:17.232Z,32.30
2022-11-28T09:38:43.884Z,35.00
2022-11-28T09:41:28.504Z,39.10
2022-11-28T09:44:24.129Z,32.40
2022-11-28T09:46:56.890Z,28.10
2022-11-28T09:49:41.016Z,29.10
2022-11-28T09:52:41.478Z,25.10
2022-11-28T09:55:35.671Z,28.50
2022-11-28T09:58:15.388Z,30.70
2022-11-28T10:00:56.003Z,24.60
2022-11-28T10:03:42.305Z,26.60
2022-11-28T10:06:31.183Z,25.10
2022-11-28T10:09:14.963Z,27.00
2022-11-28T10:12:15.940Z,26.90
2022-11-28T10:15:18.333Z,27.70
2022-11-28T10:18:41.708Z,27.90
2022-11-28T10:21:31.273Z,28.60
2022-11-28T10:24:10.501Z,24.40
2022-11-28T10:26:41.226Z,29.80
2022-11-28T10:29:22.830Z,32.70
2022-11-28T10:31:58.819Z,28.50
2022-11-28T10:34:45.348Z,24.40
2022-11-28T10:37:30.993Z,22.70
2022-11-28T10:40:20.021Z,25.50
2022-11-28T10:43:21.006Z,25.40
2022-11-28T10:46:23.100Z,28.20
2022-11-28T10:49:38.388Z,26.10
2022-11-28T10:52:23.924Z,24.90
2022-11-28T10:55:21.329Z,27.00
2022-11-28T10:58:09.527Z,23.60
2022-11-28T11:00:38.179Z,20.90
2022-11-28T11:03:06.013Z,25.70
2022-11-28T11:05:35.835Z,22.60
2022-11-28T11:08:29.659Z,24.10
2022-11-28T11:11:29.339Z,22.10
2022-11-28T11:14:02.860Z,22.00
2022-11-28T11:16:52.091Z,21.60
2022-11-28T11:19:37.064Z,17.70
2022-11-28T11:22:19.034Z,21.30
2022-11-28T11:25:05.667Z,19.40
2022-11-28T11:27:34.936Z,21.10
2022-11-28T11:30:18.411Z,19.60
2022-11-28T11:32:51.420Z,22.40
2022-11-28T11:35:27.110Z,25.60
2022-11-28T11:38:20.065Z,21.60
2022-11-28T11:40:48.208Z,21.90
2022-11-28T11:43:30.119Z,19.10
2022-11-28T11:46:07.412Z,23.10
2022-11-28T11:48:42.210Z,24.20
2022-11-28T11:51:39.393Z,25.50
2022-11-28T11:54:19.155Z,24.90
2022-11-28T11:56:53.544Z,23.60
2022-11-28T12:00:04.629Z,24.50
2022-11-28T12:02:56.528Z,23.60
2022-11-28T12:06:06.187Z,25.80
2022-11-28T12:08:36.112Z,24.40
2022-11-28T12:11:17.764Z,25.00
2022-11-28T12:13:44.762Z,25.10
2022-11-28T12:16:33.322Z,29.80
2022-11-28T12:19:43.944Z,28.00
2022-11-28T12:22:27.089Z,23.60
2022-11-28T12:25:18.451Z,28.10
2022-11-28T12:28:14.505Z,23.50
2022-11-28T12:31:22.598Z,25.10
2022-11-28T12:34:01.102Z,31.20
2022-11-28T12:36:57.366Z,28.10
2022-11-28T12:39:48.445Z,30.70
2022-11-28T12:43:05.509Z,33.40
2022-11-28T12:45:46.927Z,37.50
2022-11-28T12:48:30.479Z,31.30
2022-11-28T12:51:40.591Z,26.90
2022-11-28T12:54:26.159Z,34.50
2022-11-28T12:57:11.137Z,30.20
2022-11-28T13:00:08.074Z,31.20
2022-11-28T13:03:16.111Z,34.30
2022-11-28T13:06:20.056Z,29.90
2022-11-28T13:09:32.736Z,29.40
2022-11-28T13:12:41.901Z,35.60
2022-11-28T13:15:53.623Z,36.90
2022-11-28T13:18:39.453Z,33.60
2022-11-28T13:21:38.948Z,31.30
2022-11-28T13:24:48.279Z,31.60
2022-11-28T13:27:27.545Z,27.60
2022-11-28T13:30:18.156Z,30.10
2022-11-28T13:32:57.639Z,32.50
2022-11-28T13:35:24.995Z,30.20
2022-11-28T13:38:41.708Z,32.80
2022-11-28T13:42:05.904Z,34.40
2022-11-28T13:44:19.794Z,31.20
2022-11-28T13:46:46.934Z,28.20
2022-11-28T13:49:26.657Z,30.80
2022-11-28T13:52:32.700Z,22.80
2022-11-28T13:54:59.152Z,24.20
2022-11-28T13:57:38.411Z,29.90
2022-11-28T14:00:25.312Z,27.70
2022-11-28T14:02:55.948Z,29.10
2022-11-28T14:05:41.484Z,33.30
2022-11-28T14:08:21.918Z,28.10
2022-11-28T14:11:34.107Z,29.00
2022-11-28T14:14:21.540Z,31.20
2022-11-28T14:17:00.456Z,32.40
2022-11-28T14:20:05.194Z,30.90
2022-11-28T14:23:01.360Z,30.40
2022-11-28T14:25:33.508Z,30.40
2022-11-28T14:28:04.940Z,31.30
2022-11-28T14:30:41.006Z,28.00
2022-11-28T14:33:40.072Z,31.50
2022-11-28T14:36:22.769Z,39.10
2022-11-28T14:39:05.306Z,35.20
2022-11-28T14:41:31.885Z,35.80
2022-11-28T14:44:45.991Z,32.00
2022-11-28T14:47:21.184Z,35.20
2022-11-28T14:49:49.232Z,41.60
2022-11-28T14:52:38.875Z,38.10
2022-11-28T14:55:21.358Z,40.10
2022-11-28T14:57:59.763Z,39.30
2022-11-28T15:00:49.843Z,38.00
2022-11-28T15:03:58.478Z,42.20
2022-11-28T15:06:36.547Z,38.40
2022-11-28T15:09:30.818Z,38.90
2022-11-28T15:12:49.012Z,31.90
2022-11-28T15:15:17.531Z,34.10
2022-11-28T15:17:51.298Z,39.50
2022-11-28T15:20:29.053Z,42.80
2022-11-28T15:22:55.570Z,34.90
2022-11-28T15:25:27.107Z,34.10
2022-11-28T15:27:55.346Z,38.00
2022-11-28T15:30:26.663Z,40.40
2022-11-28T15:33:00.110Z,37.30
2022-11-28T15:35:28.408Z,35.90
2022-11-28T15:37:58.315Z,39.70
2022-11-28T15:40:36.522Z,37.40
2022-11-28T15:43:09.588Z,35.20
2022-11-28T15:45:42.134Z,40.30
2022-11-28T15:48:37.666Z,41.60
2022-11-28T15:51:07.388Z,36.90
2022-11-28T15:53:33.764Z,47.00
2022-11-28T15:56:14.611Z,49.70
2022-11-28T15:58:44.346Z,37.10
2022-11-28T16:01:28.073Z,40.40
2022-11-28T16:04:05.268Z,36.20
2022-11-28T16:06:36.848Z,36.10
2022-11-28T16:09:17.087Z,36.40
2022-11-28T16:11:48.013Z,43.30
2022-11-28T16:14:43.578Z,36.60
2022-11-28T16:17:20.550Z,38.40
2022-11-28T16:19:52.472Z,40.30
2022-11-28T16:22:22.150Z,36.30
2022-11-28T16:24:52.255Z,37.00
2022-11-28T16:27:35.269Z,38.00
2022-11-28T16:30:23.903Z,35.60
2022-11-28T16:32:53.131Z,37.30
2022-11-28T16:35:40.457Z,35.70
2022-11-28T16:38:25.124Z,36.90
2022-11-28T16:40:59.623Z,40.40
2022-11-28T16:43:35.231Z,41.30
2022-11-28T16:46:06.850Z,39.90
2022-11-28T16:48:46.648Z,38.10
2022-11-28T16:51:13.213Z,40.00
2022-11-28T16:53:51.190Z,32.20
2022-11-28T16:56:29.601Z,30.70
2022-11-28T16:59:18.793Z,34.60
2022-11-28T17:01:52.807Z,34.80
2022-11-28T17:04:27.661Z,34.30
2022-11-28T17:06:58.536Z,35.10
2022-11-28T17:09:25.176Z,34.10
2022-11-28T17:11:58.948Z,37.60
2022-11-28T17:14:25.573Z,36.20
2022-11-28T17:16:52.108Z,37.20
2022-11-28T17:19:18.515Z,38.20
2022-11-28T17:21:52.480Z,36.90
2022-11-28T17:24:26.630Z,36.80
2022-11-28T17:26:54.855Z,31.20
2022-11-28T17:29:22.816Z,26.50
2022-11-28T17:31:50.179Z,31.50
2022-11-28T17:34:35.120Z,30.90
2022-11-28T17:37:02.934Z,34.20
2022-11-28T17:39:29.760Z,31.10
2022-11-28T17:41:57.605Z,36.40
2022-11-28T17:44:31.396Z,38.30
2022-11-28T17:47:00.444Z,34.90
2022-11-28T17:49:28.109Z,35.50
2022-11-28T17:51:56.565Z,35.30
2022-11-28T17:54:25.082Z,35.70
2022-11-28T17:56:52.956Z,38.20
2022-11-28T17:59:23.422Z,42.10
2022-11-28T18:01:50.977Z,47.00
2022-11-28T18:04:17.772Z,38.80
2022-11-28T18:06:47.167Z,36.10
2022-11-28T18:09:14.329Z,45.40
2022-11-28T18:11:42.525Z,39.40
2022-11-28T18:14:09.535Z,42.10
2022-11-28T18:16:36.302Z,42.30
2022-11-28T18:19:04.138Z,38.70
2022-11-28T18:21:31.442Z,39.00
2022-11-28T18:23:57.939Z,33.80
2022-11-28T18:26:26.166Z,39.00
2022-11-28T18:28:53.866Z,34.40
2022-11-28T18:31:24.379Z,41.30
2022-11-28T18:33:55.115Z,35.90
2022-11-28T18:36:27.344Z,36.40
2022-11-28T18:39:00.098Z,35.10
2022-11-28T18:41:27.490Z,28.40
2022-11-28T18:44:04.585Z,32.50
2022-11-28T18:46:32.595Z,29.70
2022-11-28T18:48:59.193Z,33.80
2022-11-28T18:51:35.255Z,39.50
2022-11-28T18:54:05.131Z,32.30
2022-11-28T18:56:32.040Z,40.00
2022-11-28T18:58:59.349Z,32.50
2022-11-28T19:01:32.605Z,30.40
2022-11-28T19:04:03.970Z,38.70
2022-11-28T19:06:31.762Z,35.10
2022-11-28T19:09:01.393Z,35.10
2022-11-28T19:11:29.405Z,29.00
2022-11-28T19:13:56.303Z,32.90
2022-11-28T19:16:29.707Z,31.90
2022-11-28T19:18:57.462Z,31.60
2022-11-28T19:21:28.051Z,28.90
2022-11-28T19:23:56.141Z,31.30
2022-11-28T19:26:25.892Z,28.00
2022-11-28T19:28:52.607Z,22.10
2022-11-28T19:31:28.926Z,30.60
2022-11-28T19:34:08.521Z,28.60
2022-11-28T19:36:41.050Z,26.40
2022-11-28T19:39:12.771Z,29.30
2022-11-28T19:41:39.164Z,37.20
2022-11-28T19:44:05.523Z,36.00
2022-11-28T19:46:35.352Z,31.80
2022-11-28T19:49:02.825Z,27.60
2022-11-28T19:51:29.268Z,32.30
2022-11-28T19:54:01.415Z,26.90
2022-11-28T19:56:29.741Z,32.60
2022-11-28T19:58:56.116Z,28.50
2022-11-28T20:01:24.366Z,26.80
2022-11-28T20:03:51.672Z,28.10
2022-11-28T20:06:26.380Z,30.90
2022-11-28T20:08:54.818Z,30.40
2022-11-28T20:11:26.046Z,27.70
2022-11-28T20:14:00.815Z,28.70
2022-11-28T20:16:30.469Z,22.30
2022-11-28T20:18:57.478Z,25.70
2022-11-28T20:21:23.880Z,31.10
2022-11-28T20:23:56.972Z,23.70
2022-11-28T20:26:26.830Z,22.90
2022-11-28T20:28:56.825Z,26.00
2022-11-28T20:31:30.961Z,22.30
2022-11-28T20:33:58.752Z,30.40
2022-11-28T20:36:27.783Z,24.70
2022-11-28T20:38:56.292Z,28.20
2022-11-28T20:41:25.320Z,31.30
2022-11-28T20:43:52.273Z,28.40
2022-11-28T20:46:30.054Z,25.70
2022-11-28T20:49:00.560Z,21.20
2022-11-28T20:51:31.503Z,25.20
2022-11-28T20:53:59.663Z,24.20
2022-11-28T20:56:29.677Z,22.20
2022-11-28T20:59:00.699Z,24.70
2022-11-28T21:01:35.416Z,24.00
2022-11-28T21:04:04.517Z,23.50
2022-11-28T21:06:31.449Z,26.30
2022-11-28T21:08:57.977Z,26.00
2022-11-28T21:11:50.500Z,24.20
2022-11-28T21:14:14.244Z,23.10
2022-11-28T21:16:41.672Z,23.40
2022-11-28T21:19:09.403Z,28.30
2022-11-28T21:21:39.840Z,25.20
2022-11-28T21:24:11.441Z,26.30
2022-11-28T21:26:44.218Z,19.60
2022-11-28T21:29:14.682Z,21.20
2022-11-28T21:31:44.537Z,23.20
2022-11-28T21:34:17.634Z,27.40
2022-11-28T21:36:45.430Z,32.30
2022-11-28T21:39:15.877Z,24.10
2022-11-28T21:41:42.820Z,25.40
2022-11-28T21:44:09.254Z,31.00
2022-11-28T21:46:35.781Z,27.00
2022-11-28T21:49:02.352Z,27.50
2022-11-28T21:51:29.165Z,22.40
2022-11-28T21:53:57.283Z,26.90
2022-11-28T21:56:24.494Z,26.30
2022-11-28T21:58:51.174Z,23.10
2022-11-28T22:01:17.991Z,22.60
2022-11-28T22:03:44.641Z,25.40
2022-11-28T22:06:18.021Z,27.70
2022-11-28T22:08:45.400Z,24.10
2022-11-28T22:11:13.239Z,29.40
2022-11-28T22:13:42.337Z,23.40
2022-11-28T22:16:22.544Z,27.90
2022-11-28T22:18:51.576Z,28.00
2022-11-28T22:24:05.812Z,25.30
2022-11-28T22:26:32.831Z,25.60
2022-11-28T22:28:59.395Z,27.50
2022-11-28T22:31:25.911Z,26.10
2022-11-28T22:33:52.612Z,29.10
2022-11-28T22:36:21.098Z,26.10
2022-11-28T22:38:54.985Z,24.50
2022-11-28T22:41:28.258Z,25.40
2022-11-28T22:43:56.771Z,25.90
2022-11-28T22:46:23.328Z,28.30
2022-11-28T22:48:51.076Z,22.90
2022-11-28T22:51:23.560Z,26.20
2022-11-28T22:53:58.807Z,27.70
2022-11-28T22:56:26.412Z,25.40
2022-11-28T22:58:52.931Z,23.80
2022-11-28T23:01:24.202Z,26.20
2022-11-28T23:03:51.673Z,28.50
2022-11-28T23:06:27.287Z,27.60
2022-11-28T23:08:55.786Z,25.60
2022-11-28T23:11:25.402Z,26.00
2022-11-28T23:13:53.220Z,25.20
2022-11-28T23:16:27.353Z,25.00
2022-11-28T23:18:58.266Z,24.90
2022-11-28T23:21:28.465Z,27.00
2022-11-28T23:23:54.980Z,26.80
2022-11-28T23:26:25.746Z,32.60
2022-11-28T23:28:52.772Z,25.80
2022-11-28T23:31:29.180Z,27.60
2022-11-28T23:33:57.066Z,24.10
2022-11-28T23:36:27.203Z,28.50
2022-11-28T23:38:57.523Z,25.70
2022-11-28T23:41:24.845Z,31.50
2022-11-28T23:43:51.346Z,26.10
2022-11-28T23:46:19.785Z,23.70
2022-11-28T23:48:47.219Z,28.80
2022-11-28T23:51:16.215Z,23.80
2022-11-28T23:53:44.104Z,26.80
2022-11-28T23:56:21.686Z,23.40
2022-11-28T23:58:48.933Z,26.20
